sensor_id;sensor_type;location;lat;lon;timestamp;P1;durP1;ratioP1;P2;durP2;ratioP2
66542;SDS011;53395;37.360;-122.046;2023-04-25T00:00:12;15.10;;;3.20;;
66542;SDS011;53395;37.360;-122.046;2023-04-25T00:02:38;16.70;;;3.38;;
66542;SDS011;53395;37.360;-122.046;2023-04-25T00:05:04;16.35;;;3.38;;
66542;SDS011;53395;37.360;-122.046;2023-04-25T00:07:30;13.95;;;2.83;;
66542;SDS011;53395;37.360;-122.046;2023-04-25T00:09:56;10.63;;;2.95;;
66542;SDS011;53395;37.360;-122.046;2023-04-25T00:12:22;16.33;;;2.75;;
66542;SDS011;53395;37.360;-122.046;2023-04-25T00:14:48;15.73;;;3.05;;
66542;SDS011;53395;37.360;-122.046;2023-04-25T00:17:15;11.00;;;2.75;;
66542;SDS011;53395;37.360;-122.046;2023-04-25T00:19:42;12.75;;;2.78;;
66542;SDS011;53395;37.360;-122.046;2023-04-25T00:22:10;11.75;;;2.95;;
66542;SDS011;53395;37.360;-122.046;2023-04-25T00:24:36;14.52;;;3.10;;
66542;SDS011;53395;37.360;-122.046;2023-04-25T00:27:04;12.15;;;2.85;;
66542;SDS011;53395;37.360;-122.046;2023-04-25T00:29:30;15.55;;;2.63;;
66542;SDS011;53395;37.360;-122.046;2023-04-25T00:31:56;15.02;;;3.50;;
66542;SDS011;53395;37.360;-122.046;2023-04-25T00:34:22;14.18;;;2.55;;
66542;SDS011;53395;37.360;-122.046;2023-04-25T00:36:48;17.13;;;3.33;;
66542;SDS011;53395;37.360;-122.046;2023-04-25T00:39:15;11.38;;;2.70;;
66542;SDS011;53395;37.360;-122.046;2023-04-25T00:41:40;10.73;;;2.67;;
66542;SDS011;53395;37.360;-122.046;2023-04-25T00:44:08;12.02;;;2.20;;
66542;SDS011;53395;37.360;-122.046;2023-04-25T00:46:36;11.38;;;2.55;;
66542;SDS011;53395;37.360;-122.046;2023-04-25T00:49:02;12.10;;;2.78;;
66542;SDS011;53395;37.360;-122.046;2023-04-25T00:51:28;15.27;;;2.88;;
66542;SDS011;53395;37.360;-122.046;2023-04-25T00:53:55;15.00;;;2.95;;
66542;SDS011;53395;37.360;-122.046;2023-04-25T00:56:21;10.30;;;2.10;;
66542;SDS011;53395;37.360;-122.046;2023-04-25T00:58:47;12.63;;;2.50;;
66542;SDS011;53395;37.360;-122.046;2023-04-25T01:01:13;11.27;;;2.83;;
66542;SDS011;53395;37.360;-122.046;2023-04-25T01:03:39;12.50;;;2.30;;
66542;SDS011;53395;37.360;-122.046;2023-04-25T01:06:09;10.05;;;2.35;;
66542;SDS011;53395;37.360;-122.046;2023-04-25T01:08:37;17.25;;;2.90;;
66542;SDS011;53395;37.360;-122.046;2023-04-25T01:11:03;12.45;;;2.10;;
66542;SDS011;53395;37.360;-122.046;2023-04-25T01:13:30;14.30;;;2.85;;
66542;SDS011;53395;37.360;-122.046;2023-04-25T01:15:57;13.75;;;2.67;;
66542;SDS011;53395;37.360;-122.046;2023-04-25T01:18:23;31.25;;;6.93;;
66542;SDS011;53395;37.360;-122.046;2023-04-25T01:20:50;16.60;;;3.13;;
66542;SDS011;53395;37.360;-122.046;2023-04-25T01:23:16;11.68;;;3.05;;
66542;SDS011;53395;37.360;-122.046;2023-04-25T01:25:42;10.95;;;2.42;;
66542;SDS011;53395;37.360;-122.046;2023-04-25T01:28:07;12.30;;;3.13;;
66542;SDS011;53395;37.360;-122.046;2023-04-25T01:30:34;16.27;;;3.15;;
66542;SDS011;53395;37.360;-122.046;2023-04-25T01:33:00;7.50;;;2.10;;
66542;SDS011;53395;37.360;-122.046;2023-04-25T01:35:27;15.15;;;2.95;;
66542;SDS011;53395;37.360;-122.046;2023-04-25T01:37:53;9.02;;;2.13;;
66542;SDS011;53395;37.360;-122.046;2023-04-25T01:40:20;12.10;;;2.88;;
66542;SDS011;53395;37.360;-122.046;2023-04-25T01:42:47;11.52;;;2.40;;
66542;SDS011;53395;37.360;-122.046;2023-04-25T01:45:13;12.40;;;2.75;;
66542;SDS011;53395;37.360;-122.046;2023-04-25T01:47:39;21.52;;;4.10;;
66542;SDS011;53395;37.360;-122.046;2023-04-25T01:50:05;15.60;;;3.47;;
66542;SDS011;53395;37.360;-122.046;2023-04-25T01:52:32;19.73;;;4.00;;
66542;SDS011;53395;37.360;-122.046;2023-04-25T01:54:58;17.45;;;3.38;;
66542;SDS011;53395;37.360;-122.046;2023-04-25T01:57:25;11.73;;;2.95;;
66542;SDS011;53395;37.360;-122.046;2023-04-25T01:59:51;13.88;;;2.70;;
66542;SDS011;53395;37.360;-122.046;2023-04-25T02:02:17;14.05;;;3.28;;
66542;SDS011;53395;37.360;-122.046;2023-04-25T02:04:43;8.90;;;2.40;;
66542;SDS011;53395;37.360;-122.046;2023-04-25T02:07:09;16.70;;;3.85;;
66542;SDS011;53395;37.360;-122.046;2023-04-25T02:09:34;21.55;;;3.72;;
66542;SDS011;53395;37.360;-122.046;2023-04-25T02:12:00;14.50;;;2.63;;
66542;SDS011;53395;37.360;-122.046;2023-04-25T02:14:27;18.60;;;3.22;;
66542;SDS011;53395;37.360;-122.046;2023-04-25T02:16:53;18.63;;;3.30;;
66542;SDS011;53395;37.360;-122.046;2023-04-25T02:19:19;15.27;;;2.17;;
66542;SDS011;53395;37.360;-122.046;2023-04-25T02:21:45;13.73;;;2.90;;
66542;SDS011;53395;37.360;-122.046;2023-04-25T02:24:11;12.35;;;1.98;;
66542;SDS011;53395;37.360;-122.046;2023-04-25T02:26:37;14.13;;;2.55;;
66542;SDS011;53395;37.360;-122.046;2023-04-25T02:29:03;12.23;;;2.47;;
66542;SDS011;53395;37.360;-122.046;2023-04-25T02:31:29;13.82;;;2.25;;
66542;SDS011;53395;37.360;-122.046;2023-04-25T02:33:54;8.70;;;1.65;;
66542;SDS011;53395;37.360;-122.046;2023-04-25T02:36:20;12.82;;;2.15;;
66542;SDS011;53395;37.360;-122.046;2023-04-25T02:38:46;19.38;;;2.90;;
66542;SDS011;53395;37.360;-122.046;2023-04-25T02:41:12;14.55;;;2.50;;
66542;SDS011;53395;37.360;-122.046;2023-04-25T02:43:38;15.23;;;2.50;;
66542;SDS011;53395;37.360;-122.046;2023-04-25T02:46:04;14.27;;;2.17;;
66542;SDS011;53395;37.360;-122.046;2023-04-25T02:48:29;15.35;;;2.50;;
66542;SDS011;53395;37.360;-122.046;2023-04-25T02:50:55;13.50;;;2.33;;
66542;SDS011;53395;37.360;-122.046;2023-04-25T02:53:21;18.38;;;2.40;;
66542;SDS011;53395;37.360;-122.046;2023-04-25T02:55:47;10.35;;;2.15;;
66542;SDS011;53395;37.360;-122.046;2023-04-25T02:58:13;8.48;;;1.70;;
66542;SDS011;53395;37.360;-122.046;2023-04-25T03:00:40;11.40;;;2.55;;
66542;SDS011;53395;37.360;-122.046;2023-04-25T03:03:05;17.48;;;3.05;;
66542;SDS011;53395;37.360;-122.046;2023-04-25T03:05:31;13.85;;;3.20;;
66542;SDS011;53395;37.360;-122.046;2023-04-25T03:07:57;11.68;;;2.42;;
66542;SDS011;53395;37.360;-122.046;2023-04-25T03:10:24;16.20;;;2.67;;
66542;SDS011;53395;37.360;-122.046;2023-04-25T03:12:49;16.00;;;2.80;;
66542;SDS011;53395;37.360;-122.046;2023-04-25T03:15:15;10.60;;;2.47;;
66542;SDS011;53395;37.360;-122.046;2023-04-25T03:17:42;12.80;;;2.38;;
66542;SDS011;53395;37.360;-122.046;2023-04-25T03:20:08;14.75;;;2.17;;
66542;SDS011;53395;37.360;-122.046;2023-04-25T03:22:34;12.35;;;2.28;;
66542;SDS011;53395;37.360;-122.046;2023-04-25T03:25:00;8.45;;;2.17;;
66542;SDS011;53395;37.360;-122.046;2023-04-25T03:27:25;13.25;;;2.20;;
66542;SDS011;53395;37.360;-122.046;2023-04-25T03:29:51;11.25;;;2.00;;
66542;SDS011;53395;37.360;-122.046;2023-04-25T03:32:17;11.43;;;2.10;;
66542;SDS011;53395;37.360;-122.046;2023-04-25T03:34:43;15.50;;;2.25;;
66542;SDS011;53395;37.360;-122.046;2023-04-25T03:37:09;10.75;;;2.08;;
66542;SDS011;53395;37.360;-122.046;2023-04-25T03:39:35;9.52;;;2.00;;
66542;SDS011;53395;37.360;-122.046;2023-04-25T03:42:01;16.73;;;2.85;;
66542;SDS011;53395;37.360;-122.046;2023-04-25T03:44:28;14.52;;;2.22;;
66542;SDS011;53395;37.360;-122.046;2023-04-25T03:46:54;18.02;;;2.92;;
66542;SDS011;53395;37.360;-122.046;2023-04-25T03:49:19;17.38;;;2.85;;
66542;SDS011;53395;37.360;-122.046;2023-04-25T03:51:45;14.00;;;2.65;;
66542;SDS011;53395;37.360;-122.046;2023-04-25T03:54:11;16.70;;;3.15;;
66542;SDS011;53395;37.360;-122.046;2023-04-25T15:55:33;23.50;;;4.43;;
66542;SDS011;53395;37.360;-122.046;2023-04-25T15:57:59;24.65;;;4.53;;
66542;SDS011;53395;37.360;-122.046;2023-04-25T16:00:25;18.52;;;3.80;;
66542;SDS011;53395;37.360;-122.046;2023-04-25T16:02:51;20.88;;;3.65;;
66542;SDS011;53395;37.360;-122.046;2023-04-25T16:05:17;31.65;;;4.57;;
66542;SDS011;53395;37.360;-122.046;2023-04-25T16:07:43;21.13;;;4.07;;
66542;SDS011;53395;37.360;-122.046;2023-04-25T16:10:09;23.70;;;4.30;;
66542;SDS011;53395;37.360;-122.046;2023-04-25T16:12:35;23.50;;;3.83;;
66542;SDS011;53395;37.360;-122.046;2023-04-25T16:15:02;21.65;;;4.03;;
66542;SDS011;53395;37.360;-122.046;2023-04-25T16:17:28;22.83;;;3.80;;
66542;SDS011;53395;37.360;-122.046;2023-04-25T16:19:54;18.60;;;3.80;;
66542;SDS011;53395;37.360;-122.046;2023-04-25T16:22:20;23.33;;;4.07;;
66542;SDS011;53395;37.360;-122.046;2023-04-25T16:24:46;26.95;;;3.95;;
66542;SDS011;53395;37.360;-122.046;2023-04-25T16:27:12;17.02;;;3.90;;
66542;SDS011;53395;37.360;-122.046;2023-04-25T16:29:39;17.55;;;3.63;;
66542;SDS011;53395;37.360;-122.046;2023-04-25T16:32:05;20.27;;;3.38;;
66542;SDS011;53395;37.360;-122.046;2023-04-25T16:34:31;23.33;;;4.75;;
66542;SDS011;53395;37.360;-122.046;2023-04-25T16:36:57;19.13;;;3.75;;
66542;SDS011;53395;37.360;-122.046;2023-04-25T16:39:23;20.50;;;3.53;;
66542;SDS011;53395;37.360;-122.046;2023-04-25T16:41:49;22.98;;;4.00;;
66542;SDS011;53395;37.360;-122.046;2023-04-25T16:44:15;18.75;;;3.92;;
66542;SDS011;53395;37.360;-122.046;2023-04-25T16:46:41;20.20;;;4.50;;
66542;SDS011;53395;37.360;-122.046;2023-04-25T16:49:07;28.63;;;5.32;;
66542;SDS011;53395;37.360;-122.046;2023-04-25T16:51:33;23.23;;;4.18;;
66542;SDS011;53395;37.360;-122.046;2023-04-25T16:53:59;19.08;;;4.18;;
66542;SDS011;53395;37.360;-122.046;2023-04-25T16:58:51;16.55;;;3.35;;
66542;SDS011;53395;37.360;-122.046;2023-04-25T17:01:17;21.17;;;3.78;;
66542;SDS011;53395;37.360;-122.046;2023-04-25T17:03:44;19.20;;;3.72;;
66542;SDS011;53395;37.360;-122.046;2023-04-25T17:08:36;19.55;;;4.00;;
66542;SDS011;53395;37.360;-122.046;2023-04-25T17:11:02;26.13;;;4.63;;
66542;SDS011;53395;37.360;-122.046;2023-04-25T17:13:28;21.25;;;4.18;;
66542;SDS011;53395;37.360;-122.046;2023-04-25T17:15:54;17.60;;;3.58;;
66542;SDS011;53395;37.360;-122.046;2023-04-25T17:18:20;22.10;;;3.97;;
66542;SDS011;53395;37.360;-122.046;2023-04-25T17:20:46;24.52;;;4.18;;
66542;SDS011;53395;37.360;-122.046;2023-04-25T17:23:12;19.80;;;3.50;;
66542;SDS011;53395;37.360;-122.046;2023-04-25T17:25:38;22.45;;;3.95;;
66542;SDS011;53395;37.360;-122.046;2023-04-25T17:28:04;17.83;;;3.80;;
66542;SDS011;53395;37.360;-122.046;2023-04-25T17:30:30;14.90;;;3.30;;
66542;SDS011;53395;37.360;-122.046;2023-04-25T17:32:57;14.20;;;3.45;;
66542;SDS011;53395;37.360;-122.046;2023-04-25T17:37:48;18.10;;;3.35;;
66542;SDS011;53395;37.360;-122.046;2023-04-25T17:40:18;16.63;;;3.42;;
66542;SDS011;53395;37.360;-122.046;2023-04-25T17:42:44;16.15;;;3.10;;
66542;SDS011;53395;37.360;-122.046;2023-04-25T17:45:10;19.08;;;2.83;;
66542;SDS011;53395;37.360;-122.046;2023-04-25T17:47:37;14.80;;;3.33;;
66542;SDS011;53395;37.360;-122.046;2023-04-25T17:50:04;14.45;;;3.05;;
66542;SDS011;53395;37.360;-122.046;2023-04-25T17:52:30;13.00;;;2.53;;
66542;SDS011;53395;37.360;-122.046;2023-04-25T17:54:56;17.77;;;3.80;;
66542;SDS011;53395;37.360;-122.046;2023-04-25T17:57:21;11.82;;;2.78;;
66542;SDS011;53395;37.360;-122.046;2023-04-25T17:59:49;9.63;;;2.53;;
66542;SDS011;53395;37.360;-122.046;2023-04-25T18:02:15;16.20;;;3.47;;
66542;SDS011;53395;37.360;-122.046;2023-04-25T18:04:41;12.07;;;2.85;;
66542;SDS011;53395;37.360;-122.046;2023-04-25T18:07:07;13.32;;;3.38;;
66542;SDS011;53395;37.360;-122.046;2023-04-25T20:23:34;10.35;;;2.03;;
66542;SDS011;53395;37.360;-122.046;2023-04-25T20:25:59;9.77;;;2.20;;
66542;SDS011;53395;37.360;-122.046;2023-04-25T20:30:52;9.65;;;2.15;;
66542;SDS011;53395;37.360;-122.046;2023-04-25T20:33:17;8.23;;;1.70;;
66542;SDS011;53395;37.360;-122.046;2023-04-25T20:35:43;7.20;;;2.03;;
66542;SDS011;53395;37.360;-122.046;2023-04-25T20:38:10;10.38;;;2.42;;
66542;SDS011;53395;37.360;-122.046;2023-04-25T20:40:36;11.15;;;2.40;;
66542;SDS011;53395;37.360;-122.046;2023-04-25T20:45:29;9.02;;;2.38;;
66542;SDS011;53395;37.360;-122.046;2023-04-25T20:47:57;9.25;;;2.03;;
66542;SDS011;53395;37.360;-122.046;2023-04-25T20:50:23;8.82;;;2.10;;
66542;SDS011;53395;37.360;-122.046;2023-04-25T20:52:50;8.85;;;1.88;;
66542;SDS011;53395;37.360;-122.046;2023-04-25T20:57:42;9.50;;;2.20;;
66542;SDS011;53395;37.360;-122.046;2023-04-25T21:00:08;15.38;;;2.67;;
66542;SDS011;53395;37.360;-122.046;2023-04-25T21:02:50;9.93;;;2.03;;
66542;SDS011;53395;37.360;-122.046;2023-04-25T21:05:17;9.60;;;2.08;;
66542;SDS011;53395;37.360;-122.046;2023-04-25T21:07:43;12.13;;;2.22;;
66542;SDS011;53395;37.360;-122.046;2023-04-25T21:10:09;10.45;;;2.33;;
66542;SDS011;53395;37.360;-122.046;2023-04-25T21:12:37;11.98;;;2.50;;
66542;SDS011;53395;37.360;-122.046;2023-04-25T21:15:03;10.25;;;2.35;;
66542;SDS011;53395;37.360;-122.046;2023-04-25T21:19:54;9.60;;;1.90;;
66542;SDS011;53395;37.360;-122.046;2023-04-25T21:22:20;5.82;;;1.60;;
66542;SDS011;53395;37.360;-122.046;2023-04-25T21:24:46;11.00;;;2.25;;
66542;SDS011;53395;37.360;-122.046;2023-04-25T21:27:15;11.05;;;1.98;;
66542;SDS011;53395;37.360;-122.046;2023-04-25T21:29:42;5.45;;;1.55;;
66542;SDS011;53395;37.360;-122.046;2023-04-25T21:32:08;8.15;;;1.52;;
66542;SDS011;53395;37.360;-122.046;2023-04-25T21:34:34;7.15;;;1.60;;
66542;SDS011;53395;37.360;-122.046;2023-04-25T21:37:00;7.22;;;1.63;;
66542;SDS011;53395;37.360;-122.046;2023-04-25T21:39:26;10.13;;;1.63;;
66542;SDS011;53395;37.360;-122.046;2023-04-25T21:41:53;6.57;;;1.52;;
66542;SDS011;53395;37.360;-122.046;2023-04-25T21:44:19;6.72;;;1.50;;
66542;SDS011;53395;37.360;-122.046;2023-04-25T21:49:11;6.85;;;1.48;;
66542;SDS011;53395;37.360;-122.046;2023-04-25T21:51:37;5.28;;;1.23;;
66542;SDS011;53395;37.360;-122.046;2023-04-25T21:56:29;10.55;;;1.42;;
66542;SDS011;53395;37.360;-122.046;2023-04-25T21:58:55;6.50;;;1.35;;
66542;SDS011;53395;37.360;-122.046;2023-04-25T22:03:47;6.32;;;1.63;;
66542;SDS011;53395;37.360;-122.046;2023-04-25T22:08:38;7.07;;;2.00;;
66542;SDS011;53395;37.360;-122.046;2023-04-25T22:11:04;7.70;;;1.65;;
66542;SDS011;53395;37.360;-122.046;2023-04-25T22:13:31;7.90;;;1.98;;
66542;SDS011;53395;37.360;-122.046;2023-04-25T22:15:57;9.90;;;2.08;;
66542;SDS011;53395;37.360;-122.046;2023-04-25T22:18:24;8.13;;;2.08;;
66542;SDS011;53395;37.360;-122.046;2023-04-25T22:23:15;7.45;;;1.73;;
66542;SDS011;53395;37.360;-122.046;2023-04-25T22:25:41;7.32;;;1.90;;
66542;SDS011;53395;37.360;-122.046;2023-04-25T22:28:07;6.75;;;1.67;;
66542;SDS011;53395;37.360;-122.046;2023-04-25T22:32:59;7.53;;;2.00;;
66542;SDS011;53395;37.360;-122.046;2023-04-25T22:37:50;8.23;;;1.83;;
66542;SDS011;53395;37.360;-122.046;2023-04-25T22:40:16;12.25;;;1.80;;
66542;SDS011;53395;37.360;-122.046;2023-04-25T22:45:09;7.82;;;1.73;;
66542;SDS011;53395;37.360;-122.046;2023-04-25T22:47:35;5.18;;;1.88;;
66542;SDS011;53395;37.360;-122.046;2023-04-25T22:50:02;8.23;;;1.70;;
66542;SDS011;53395;37.360;-122.046;2023-04-25T22:52:30;8.00;;;1.70;;
66542;SDS011;53395;37.360;-122.046;2023-04-25T22:54:58;4.75;;;1.30;;
66542;SDS011;53395;37.360;-122.046;2023-04-25T22:59:52;6.90;;;1.40;;
66542;SDS011;53395;37.360;-122.046;2023-04-25T23:02:18;5.97;;;1.27;;
66542;SDS011;53395;37.360;-122.046;2023-04-25T23:04:44;7.53;;;1.60;;
66542;SDS011;53395;37.360;-122.046;2023-04-25T23:09:36;5.93;;;1.60;;
66542;SDS011;53395;37.360;-122.046;2023-04-25T23:14:27;5.95;;;1.75;;
66542;SDS011;53395;37.360;-122.046;2023-04-25T23:16:53;8.68;;;2.08;;
66542;SDS011;53395;37.360;-122.046;2023-04-25T23:19:20;7.45;;;1.60;;
66542;SDS011;53395;37.360;-122.046;2023-04-25T23:24:11;5.47;;;1.50;;
66542;SDS011;53395;37.360;-122.046;2023-04-25T23:26:38;6.45;;;2.00;;
66542;SDS011;53395;37.360;-122.046;2023-04-25T23:29:06;8.20;;;1.73;;
66542;SDS011;53395;37.360;-122.046;2023-04-25T23:31:32;5.38;;;1.48;;
66542;SDS011;53395;37.360;-122.046;2023-04-25T23:36:23;5.80;;;1.65;;
66542;SDS011;53395;37.360;-122.046;2023-04-25T23:38:51;6.63;;;1.23;;
66542;SDS011;53395;37.360;-122.046;2023-04-25T23:43:42;6.45;;;1.42;;
66542;SDS011;53395;37.360;-122.046;2023-04-25T23:46:08;5.10;;;1.48;;
66542;SDS011;53395;37.360;-122.046;2023-04-25T23:48:34;5.43;;;1.58;;
66542;SDS011;53395;37.360;-122.046;2023-04-25T23:51:00;5.03;;;1.27;;
66542;SDS011;53395;37.360;-122.046;2023-04-25T23:53:26;6.60;;;1.40;;
66542;SDS011;53395;37.360;-122.046;2023-04-25T23:55:52;5.05;;;1.27;;
66542;SDS011;53395;37.360;-122.046;2023-04-25T23:58:18;8.68;;;1.63;;
